createdAt,value
2019-03-20T00:03:43.372Z,82.87
2019-03-20T00:08:50.373Z,82.92
2019-03-20T00:13:58.888Z,83.03
2019-03-20T00:19:05.887Z,83.02
2019-03-20T00:24:12.589Z,82.94
2019-03-20T00:29:19.408Z,82.91
2019-03-20T00:34:26.388Z,82.91
2019-03-20T00:39:32.238Z,82.92
2019-03-20T00:44:39.087Z,83.03
2019-03-20T00:49:46.050Z,82.97
2019-03-20T00:54:52.983Z,82.97
2019-03-20T00:59:59.704Z,83.13
2019-03-20T01:05:12.500Z,83.11
2019-03-20T01:10:18.888Z,83.03
2019-03-20T01:15:25.739Z,83.03
2019-03-20T01:20:32.511Z,83.19
2019-03-20T01:25:39.525Z,83.22
2019-03-20T01:30:46.411Z,83.24
2019-03-20T01:35:53.422Z,83.23
2019-03-20T01:41:00.444Z,83.25
2019-03-20T01:46:07.520Z,83.04
2019-03-20T01:51:21.204Z,82.81
2019-03-20T01:56:28.351Z,82.81
2019-03-20T02:01:35.348Z,82.90
2019-03-20T02:06:43.322Z,82.80
2019-03-20T02:11:50.358Z,82.77
2019-03-20T02:16:57.395Z,82.71
2019-03-20T02:22:04.372Z,82.76
2019-03-20T02:27:11.852Z,82.59
2019-03-20T02:32:18.549Z,82.51
2019-03-20T02:37:26.439Z,82.23
2019-03-20T02:42:33.424Z,82.35
2019-03-20T02:48:00.657Z,82.51
2019-03-20T02:53:07.531Z,82.19
2019-03-20T02:58:15.548Z,82.33
2019-03-20T03:03:22.428Z,82.47
2019-03-20T03:08:29.392Z,82.46
2019-03-20T03:13:36.420Z,82.47
2019-03-20T03:18:43.420Z,82.44
2019-03-20T03:23:50.380Z,82.50
2019-03-20T03:28:56.289Z,82.52
2019-03-20T03:34:03.175Z,82.53
2019-03-20T03:39:11.201Z,82.52
2019-03-20T03:44:19.102Z,82.42
2019-03-20T03:49:26.075Z,82.24
2019-03-20T03:54:33.051Z,82.21
2019-03-20T03:59:40.025Z,82.36
2019-03-20T04:04:46.976Z,82.46
2019-03-20T04:09:55.316Z,82.52
2019-03-20T04:15:02.197Z,82.62
2019-03-20T04:20:12.081Z,82.65
2019-03-20T04:25:20.194Z,82.66
2019-03-20T04:30:27.038Z,82.64
2019-03-20T04:35:33.748Z,82.56
2019-03-20T04:40:40.535Z,82.42
2019-03-20T04:45:47.398Z,82.47
2019-03-20T04:50:54.347Z,82.47
2019-03-20T04:56:01.352Z,82.40
2019-03-20T05:01:08.329Z,82.34
2019-03-20T05:06:15.281Z,82.51
2019-03-20T05:11:22.383Z,82.62
2019-03-20T05:16:29.386Z,82.64
2019-03-20T05:21:36.408Z,82.95
2019-03-20T05:26:43.408Z,82.95
2019-03-20T05:31:50.374Z,82.93
2019-03-20T05:36:57.342Z,83.07
2019-03-20T05:42:04.324Z,83.07
2019-03-20T05:47:11.341Z,83.24
2019-03-20T05:52:18.348Z,83.35
2019-03-20T05:57:25.411Z,83.49
2019-03-20T06:02:32.358Z,83.54
2019-03-20T06:07:39.333Z,83.62
2019-03-20T06:12:46.408Z,83.75
2019-03-20T06:17:53.325Z,83.75
2019-03-20T06:23:00.345Z,83.74
2019-03-20T06:28:07.396Z,83.69
2019-03-20T06:33:14.345Z,83.67
2019-03-20T06:38:21.335Z,83.71
2019-03-20T06:43:27.239Z,83.76
2019-03-20T06:48:34.179Z,83.74
2019-03-20T06:53:41.257Z,83.71
2019-03-20T06:58:48.262Z,83.72
2019-03-20T07:04:43.865Z,83.65
2019-03-20T07:10:31.478Z,83.53
2019-03-20T07:15:38.380Z,83.50
2019-03-20T07:20:45.349Z,83.42
2019-03-20T07:25:52.380Z,83.37
2019-03-20T07:30:59.389Z,83.31
2019-03-20T07:36:07.889Z,83.14
2019-03-20T07:41:14.729Z,83.07
2019-03-20T07:46:21.623Z,82.76
2019-03-20T07:51:28.425Z,82.47
2019-03-20T07:56:35.407Z,82.33
2019-03-20T08:01:42.381Z,82.11
2019-03-20T08:06:49.425Z,82.12
2019-03-20T08:11:57.630Z,82.06
2019-03-20T08:17:04.419Z,81.42
2019-03-20T08:22:11.387Z,81.07
2019-03-20T08:27:18.478Z,81.07
2019-03-20T08:32:25.399Z,79.80
2019-03-20T08:37:31.224Z,80.98
2019-03-20T08:42:38.173Z,79.20
2019-03-20T08:47:45.348Z,80.44
2019-03-20T08:52:52.350Z,79.84
2019-03-20T08:57:59.405Z,78.66
2019-03-20T09:03:07.455Z,79.13
2019-03-20T09:08:14.542Z,78.17
2019-03-20T09:13:21.463Z,76.79
2019-03-20T09:18:28.441Z,76.79
2019-03-20T09:23:39.837Z,80.35
2019-03-20T09:28:44.249Z,82.81
2019-03-20T09:33:51.492Z,81.71
2019-03-20T09:38:58.698Z,76.19
2019-03-20T09:44:06.248Z,76.19
2019-03-20T09:49:13.304Z,76.17
2019-03-20T09:54:20.570Z,73.67
2019-03-20T09:59:27.530Z,68.56
2019-03-20T10:04:34.476Z,68.56
2019-03-20T10:09:41.444Z,69.30
2019-03-20T10:14:48.474Z,68.02
2019-03-20T10:19:55.432Z,66.96
2019-03-20T10:25:02.471Z,63.16
2019-03-20T10:30:16.570Z,63.27
2019-03-20T10:35:24.097Z,62.38
2019-03-20T10:40:31.575Z,60.58
2019-03-20T10:45:38.502Z,59.88
2019-03-20T10:50:45.576Z,59.88
2019-03-20T10:55:52.452Z,58.99
2019-03-20T11:00:59.586Z,58.78
2019-03-20T11:06:10.225Z,57.37
2019-03-20T11:11:26.668Z,57.37
2019-03-20T11:16:26.437Z,56.71
2019-03-20T11:21:33.591Z,56.14
2019-03-20T11:26:40.531Z,53.91
2019-03-20T11:31:47.581Z,53.85
2019-03-20T11:36:54.577Z,53.91
2019-03-20T11:42:01.470Z,52.05
2019-03-20T11:47:09.497Z,52.81
2019-03-20T11:52:18.422Z,52.81
2019-03-20T11:57:25.585Z,53.47
2019-03-20T12:02:32.579Z,53.81
2019-03-20T12:07:39.610Z,52.68
2019-03-20T12:12:46.447Z,52.62
2019-03-20T12:17:53.494Z,52.62
2019-03-20T12:27:57.063Z,55.61
2019-03-20T12:33:04.564Z,53.00
2019-03-20T12:38:14.960Z,50.97
2019-03-20T12:43:20.498Z,51.88
2019-03-20T12:48:27.444Z,49.63
2019-03-20T12:53:35.038Z,48.96
2019-03-20T13:00:01.637Z,49.59
2019-03-20T13:05:11.323Z,48.64
2019-03-20T13:10:18.983Z,48.64
2019-03-20T13:15:26.269Z,48.63
2019-03-20T13:20:32.295Z,50.58
2019-03-20T13:25:39.586Z,49.33
2019-03-20T13:30:56.657Z,48.21
2019-03-20T13:36:04.232Z,48.21
2019-03-20T13:41:11.460Z,48.77
2019-03-20T13:51:00.710Z,52.63
2019-03-20T13:56:07.594Z,50.27
2019-03-20T14:01:14.456Z,49.20
2019-03-20T14:06:21.474Z,49.20
2019-03-20T14:11:29.578Z,48.54
2019-03-20T14:16:36.450Z,47.19
2019-03-20T14:21:43.574Z,47.19
2019-03-20T14:26:52.264Z,47.39
2019-03-20T14:31:59.572Z,47.63
2019-03-20T14:37:05.336Z,48.39
2019-03-20T14:42:12.448Z,46.97
2019-03-20T14:47:19.532Z,46.88
2019-03-20T14:52:27.057Z,45.86
2019-03-20T14:57:34.262Z,45.77
2019-03-20T15:02:41.427Z,45.22
2019-03-20T15:07:48.557Z,46.84
2019-03-20T15:12:56.242Z,46.82
2019-03-20T15:18:03.519Z,46.82
2019-03-20T15:23:10.565Z,47.12
2019-03-20T15:28:17.865Z,47.38
2019-03-20T15:33:24.696Z,48.10
2019-03-20T15:38:31.572Z,48.10
2019-03-20T15:43:38.578Z,48.49
2019-03-20T15:48:45.467Z,48.17
2019-03-20T15:53:52.471Z,48.17
2019-03-20T15:59:00.476Z,48.79
2019-03-20T16:04:09.897Z,50.26
2019-03-20T16:10:34.893Z,52.44
2019-03-20T16:15:41.589Z,51.46
2019-03-20T16:20:48.549Z,51.90
2019-03-20T16:25:55.449Z,52.64
2019-03-20T16:31:02.446Z,51.48
2019-03-20T16:36:09.581Z,51.48
2019-03-20T16:41:17.184Z,52.64
2019-03-20T16:46:24.496Z,52.75
2019-03-20T16:51:31.574Z,52.75
2019-03-20T16:56:38.471Z,53.88
2019-03-20T17:01:45.455Z,53.88
2019-03-20T17:06:52.545Z,54.14
2019-03-20T17:11:59.597Z,54.14
2019-03-20T17:17:06.657Z,53.59
2019-03-20T17:22:13.627Z,53.59
2019-03-20T17:27:20.577Z,55.02
2019-03-20T17:32:27.570Z,55.35
2019-03-20T17:37:34.567Z,55.62
2019-03-20T17:42:42.584Z,55.62
2019-03-20T17:47:50.254Z,55.94
2019-03-20T17:52:57.571Z,55.94
2019-03-20T17:58:06.431Z,56.80
2019-03-20T18:03:13.598Z,56.80
2019-03-20T18:08:19.358Z,56.78
2019-03-20T18:13:27.734Z,56.77
2019-03-20T18:18:34.588Z,56.77
2019-03-20T18:23:41.608Z,57.93
2019-03-20T18:28:48.592Z,57.89
2019-03-20T18:33:55.595Z,57.89
2019-03-20T18:39:02.466Z,58.03
2019-03-20T18:44:09.587Z,58.03
2019-03-20T18:49:16.595Z,58.60
2019-03-20T18:54:24.445Z,58.45
2019-03-20T19:04:12.599Z,61.46
2019-03-20T19:09:19.591Z,58.44
2019-03-20T19:14:26.580Z,58.44
2019-03-20T19:19:33.612Z,59.10
2019-03-20T19:24:40.589Z,59.10
2019-03-20T19:29:47.487Z,59.63
2019-03-20T19:34:54.579Z,59.63
2019-03-20T19:40:00.325Z,58.83
2019-03-20T19:45:12.424Z,59.27
2019-03-20T19:50:19.587Z,59.27
2019-03-20T19:55:26.588Z,60.30
2019-03-20T20:00:33.584Z,60.30
2019-03-20T20:05:40.522Z,60.07
2019-03-20T20:10:47.589Z,59.48
2019-03-20T20:15:54.681Z,60.17
2019-03-20T20:21:01.447Z,59.65
2019-03-20T20:26:08.577Z,59.65
2019-03-20T20:31:15.587Z,60.50
2019-03-20T20:36:22.609Z,60.40
2019-03-20T20:41:29.558Z,60.40
2019-03-20T20:46:36.573Z,59.90
2019-03-20T20:55:33.674Z,63.58
2019-03-20T21:00:40.691Z,60.88
2019-03-20T21:05:47.856Z,60.98
2019-03-20T21:10:54.918Z,60.98
2019-03-20T21:16:07.588Z,61.00
2019-03-20T21:21:14.376Z,61.43
2019-03-20T21:26:23.322Z,62.12
2019-03-20T21:31:54.713Z,62.12
2019-03-20T21:38:05.934Z,61.63
2019-03-20T21:47:30.265Z,64.89
2019-03-20T21:52:37.386Z,62.04
2019-03-20T21:58:37.265Z,61.00
2019-03-20T22:03:45.253Z,61.00
2019-03-20T22:08:59.783Z,60.35
2019-03-20T22:14:11.252Z,60.56
2019-03-20T22:19:42.636Z,60.95
2019-03-20T22:25:26.613Z,61.15
2019-03-20T22:30:34.592Z,62.08
2019-03-20T22:35:56.749Z,62.08
2019-03-20T22:41:46.272Z,62.57
2019-03-20T22:48:43.442Z,63.38
2019-03-20T22:54:58.717Z,63.42
2019-03-20T23:00:10.267Z,64.54
2019-03-20T23:05:20.113Z,65.45
2019-03-20T23:10:29.457Z,66.07
2019-03-20T23:15:37.273Z,66.49
2019-03-20T23:20:44.258Z,66.99
2019-03-20T23:25:52.064Z,67.29
2019-03-20T23:31:00.587Z,67.59
2019-03-20T23:36:09.628Z,68.19
2019-03-20T23:41:19.067Z,67.92
2019-03-20T23:46:28.460Z,67.92
2019-03-20T23:51:37.246Z,68.85
2019-03-20T23:56:45.625Z,68.85
